Time;durP1;ratioP1;P1;durP2;ratioP2;P2;SDS_P1;SDS_P2;PMS_P1;PMS_P2;Temp;Humidity;BMP_temperature;BMP_pressure;BME280_temperature;BME280_humidity;BME280_pressure;Samples;Min_cycle;Max_cycle;Signal;HPM_P1;HPM_P2
2021/01/22 00:00:11;;;;;;;0.60;0.60;;;13.00;93.60;;;;;;5080560;28;20664;-64
2021/01/22 00:02:38;;;;;;;0.60;0.50;;;13.10;93.70;;;;;;5080740;28;20227;-65
2021/01/22 00:05:05;;;;;;;0.70;0.43;;;13.00;93.50;;;;;;5080793;28;20211;-65
2021/01/22 00:07:31;;;;;;;1.07;0.53;;;13.10;93.80;;;;;;5080949;28;20235;-65
2021/01/22 00:09:58;;;;;;;0.73;0.60;;;13.50;94.10;;;;;;5080820;28;20201;-65
2021/01/22 00:12:24;;;;;;;1.13;0.63;;;13.30;93.70;;;;;;5080883;28;20212;-65
2021/01/22 00:14:50;;;;;;;0.43;0.40;;;13.10;93.80;;;;;;5081627;28;20209;-65
2021/01/22 00:17:16;;;;;;;0.90;0.63;;;13.00;93.90;;;;;;5080925;28;20225;-65
2021/01/22 00:19:43;;;;;;;0.67;0.57;;;13.90;94.30;;;;;;5074477;28;20229;-64
2021/01/22 00:22:09;;;;;;;0.57;0.50;;;13.00;94.10;;;;;;5074140;28;20220;-64
2021/01/22 00:24:36;;;;;;;0.50;0.50;;;13.10;93.90;;;;;;5073599;28;20209;-65
2021/01/22 00:27:02;;;;;;;0.90;0.50;;;13.00;94.10;;;;;;5074352;28;20237;-63
2021/01/22 00:29:28;;;;;;;0.93;0.60;;;12.90;94.40;;;;;;5073850;28;20203;-64
2021/01/22 00:31:54;;;;;;;1.67;0.80;;;12.80;94.50;;;;;;5074819;28;20212;-64
2021/01/22 00:34:20;;;;;;;0.50;0.50;;;12.70;94.80;;;;;;5074842;28;20270;-64
2021/01/22 00:36:49;;;;;;;0.60;0.50;;;12.70;95.00;;;;;;5075684;28;20221;-64
2021/01/22 00:39:15;;;;;;;0.50;0.40;;;12.50;95.20;;;;;;5075926;28;20298;-63
2021/01/22 00:41:41;;;;;;;0.70;0.53;;;12.50;95.30;;;;;;5076011;28;20200;-64
2021/01/22 00:44:08;;;;;;;0.60;0.50;;;12.60;95.40;;;;;;5075629;28;20209;-64
2021/01/22 00:46:34;;;;;;;0.87;0.57;;;12.40;95.70;;;;;;5075221;28;20217;-64
2021/01/22 00:49:00;;;;;;;0.53;0.50;;;12.20;96.00;;;;;;5074554;28;20209;-64
2021/01/22 00:51:26;;;;;;;0.73;0.47;;;12.10;96.20;;;;;;5077737;28;20209;-64
2021/01/22 00:53:53;;;;;;;0.70;0.63;;;11.90;96.40;;;;;;5077785;28;20201;-64
2021/01/22 00:56:19;;;;;;;0.40;0.40;;;11.80;96.70;;;;;;5077724;28;20225;-63
2021/01/22 00:58:45;;;;;;;1.60;0.60;;;11.80;96.80;;;;;;5077448;28;20224;-63
2021/01/22 01:01:11;;;;;;;0.40;0.30;;;11.60;97.10;;;;;;5077886;28;20201;-64
2021/01/22 01:03:38;;;;;;;0.70;0.70;;;11.50;97.20;;;;;;5078420;28;20208;-64
2021/01/22 01:06:04;;;;;;;0.60;0.47;;;11.50;97.30;;;;;;5077126;28;20228;-63
2021/01/22 01:08:30;;;;;;;1.33;0.70;;;11.40;97.50;;;;;;5076370;28;20201;-64
2021/01/22 01:10:57;;;;;;;1.80;0.70;;;11.30;97.80;;;;;;5078059;28;20235;-63
2021/01/22 01:13:23;;;;;;;0.40;0.40;;;11.20;97.90;;;;;;5078774;28;20208;-64
2021/01/22 01:15:50;;;;;;;1.37;0.80;;;11.20;97.90;;;;;;5077695;28;20221;-64
2021/01/22 01:18:16;;;;;;;1.30;0.50;;;11.10;97.90;;;;;;5076409;28;20225;-65
2021/01/22 01:20:42;;;;;;;0.70;0.40;;;11.10;97.80;;;;;;5077565;28;20212;-64
2021/01/22 01:23:14;;;;;;;1.20;0.60;;;10.90;97.80;;;;;;5078579;28;20212;-65
2021/01/22 01:25:40;;;;;;;0.37;0.30;;;10.90;97.80;;;;;;5077657;28;20257;-64
2021/01/22 01:28:08;;;;;;;1.07;0.47;;;10.90;97.80;;;;;;5079055;28;20208;-64
2021/01/22 01:30:35;;;;;;;0.80;0.60;;;11.00;97.80;;;;;;5081083;28;20220;-64
2021/01/22 01:33:02;;;;;;;1.23;0.60;;;11.10;97.70;;;;;;5079420;28;20216;-64
2021/01/22 01:35:28;;;;;;;2.30;0.50;;;11.10;97.60;;;;;;5077564;28;20726;-64
2021/01/22 01:37:54;;;;;;;1.03;0.43;;;11.20;97.60;;;;;;5076422;28;20208;-63
2021/01/22 01:40:20;;;;;;;1.37;0.40;;;11.20;97.50;;;;;;5075770;28;20209;-63
2021/01/22 01:42:46;;;;;;;0.40;0.40;;;11.20;97.50;;;;;;5075269;28;20205;-63
2021/01/22 01:45:16;;;;;;;0.30;0.30;;;11.30;97.50;;;;;;5074946;28;20212;-64
2021/01/22 01:47:43;;;;;;;0.60;0.43;;;11.20;97.40;;;;;;5074645;28;20204;-64
2021/01/22 01:50:11;;;;;;;1.37;0.63;;;11.20;97.40;;;;;;5074618;28;20259;-64
2021/01/22 01:52:37;;;;;;;0.40;0.30;;;11.30;97.40;;;;;;5074958;28;20217;-63
2021/01/22 01:55:05;;;;;;;0.30;0.30;;;11.20;97.40;;;;;;5074636;28;20208;-64
2021/01/22 01:57:32;;;;;;;2.07;0.50;;;11.30;97.40;;;;;;5074787;28;20225;-64
2021/01/22 01:59:59;;;;;;;0.87;0.40;;;11.30;97.40;;;;;;5074617;28;20221;-64
2021/01/22 02:02:27;;;;;;;1.13;0.60;;;11.40;97.40;;;;;;5073674;28;20607;-64
2021/01/22 02:04:55;;;;;;;0.60;0.40;;;11.40;97.40;;;;;;5075167;28;20216;-64
2021/01/22 02:07:22;;;;;;;0.57;0.50;;;11.30;97.40;;;;;;5074637;28;20224;-63
2021/01/22 02:09:48;;;;;;;1.67;0.80;;;11.40;97.50;;;;;;5073946;28;20204;-63
2021/01/22 02:12:15;;;;;;;0.67;0.50;;;11.40;97.40;;;;;;5073977;28;20270;-64
2021/01/22 02:14:43;;;;;;;2.60;0.60;;;11.40;97.50;;;;;;5073706;28;20688;-64
2021/01/22 02:17:09;;;;;;;0.40;0.40;;;11.30;97.50;;;;;;5073607;28;20221;-63
2021/01/22 02:19:52;;;;;;;1.27;0.53;;;11.40;97.30;;;;;;5073335;28;20712;-64
2021/01/22 02:22:19;;;;;;;0.53;0.30;;;11.50;97.20;;;;;;5075844;28;20672;-64
2021/01/22 02:24:47;;;;;;;1.10;0.73;;;11.40;97.20;;;;;;5075770;28;20201;-64
2021/01/22 02:27:16;;;;;;;0.90;0.70;;;11.40;97.20;;;;;;5075897;28;20282;-64
2021/01/22 02:29:43;;;;;;;0.63;0.37;;;11.40;97.20;;;;;;5077928;28;20200;-64
2021/01/22 02:32:12;;;;;;;0.87;0.60;;;11.50;97.00;;;;;;5078248;28;20204;-64
2021/01/22 02:34:40;;;;;;;0.63;0.60;;;11.60;96.80;;;;;;5077966;28;20205;-64
2021/01/22 02:37:11;;;;;;;1.30;0.90;;;11.40;96.80;;;;;;5076325;28;20225;-64
2021/01/22 02:39:40;;;;;;;1.53;0.60;;;11.50;96.80;;;;;;5075986;28;20228;-65
2021/01/22 02:42:08;;;;;;;0.70;0.60;;;11.60;96.70;;;;;;5075810;28;20209;-65
2021/01/22 02:44:36;;;;;;;1.83;0.57;;;11.50;96.60;;;;;;5074564;28;20227;-65
2021/01/22 02:47:06;;;;;;;2.00;0.70;;;11.50;96.50;;;;;;5074212;28;20231;-65
2021/01/22 02:49:32;;;;;;;0.83;0.60;;;11.50;96.40;;;;;;5074016;28;20688;-65
2021/01/22 02:51:58;;;;;;;1.93;0.70;;;11.40;96.40;;;;;;5074919;28;20256;-66
2021/01/22 02:54:25;;;;;;;2.83;0.90;;;11.50;96.40;;;;;;5074861;28;20216;-64
2021/01/22 02:57:00;;;;;;;2.87;1.07;;;11.60;96.20;;;;;;5074548;28;20600;-65
2021/01/22 02:59:41;;;;;;;2.93;1.00;;;11.50;96.30;;;;;;5074474;28;20242;-64
2021/01/22 03:02:16;;;;;;;1.80;0.80;;;11.50;96.20;;;;;;5074585;28;20215;-64
2021/01/22 03:04:42;;;;;;;1.20;0.80;;;11.40;96.20;;;;;;5073672;28;20254;-64
2021/01/22 03:07:12;;;;;;;2.37;0.77;;;11.50;96.10;;;;;;5074060;28;20251;-64
2021/01/22 03:09:42;;;;;;;4.70;1.00;;;11.50;96.10;;;;;;5074097;28;20205;-64
2021/01/22 03:12:10;;;;;;;1.97;1.00;;;11.50;96.00;;;;;;5073617;28;20205;-64
2021/01/22 03:14:39;;;;;;;2.67;0.90;;;11.40;96.10;;;;;;5074546;28;20691;-64
2021/01/22 03:17:06;;;;;;;3.77;1.17;;;11.50;96.00;;;;;;5074971;28;20233;-64
2021/01/22 03:19:41;;;;;;;3.63;1.10;;;11.30;95.90;;;;;;5074135;28;20229;-64
2021/01/22 03:22:08;;;;;;;3.70;1.07;;;11.30;95.90;;;;;;5074662;28;20250;-65
2021/01/22 03:24:34;;;;;;;5.07;1.20;;;11.30;95.90;;;;;;5074073;28;20209;-65
2021/01/22 03:27:00;;;;;;;6.83;1.30;;;11.30;95.80;;;;;;5083617;22;20715;-58
2021/01/22 03:29:26;;;;;;;3.87;1.10;;;11.10;96.00;;;;;;5051165;28;20225;-57
2021/01/22 03:31:53;;;;;;;4.13;1.10;;;10.90;96.20;;;;;;5051105;28;20213;-57
2021/01/22 03:34:20;;;;;;;4.20;1.40;;;10.90;96.20;;;;;;5050889;28;20217;-57
2021/01/22 03:36:47;;;;;;;5.10;1.03;;;10.90;96.20;;;;;;5050954;28;20221;-58
2021/01/22 03:39:13;;;;;;;2.77;1.23;;;10.80;96.20;;;;;;5050760;28;20605;-58
2021/01/22 03:41:39;;;;;;;2.83;1.00;;;10.70;96.40;;;;;;5050839;28;20363;-57
2021/01/22 03:44:06;;;;;;;5.10;1.40;;;10.80;96.40;;;;;;5050911;28;20213;-57
2021/01/22 03:46:32;;;;;;;5.47;1.00;;;10.80;96.40;;;;;;5050905;28;20244;-57
2021/01/22 03:48:59;;;;;;;3.47;1.20;;;10.70;96.30;;;;;;5050884;28;20278;-57
2021/01/22 03:51:25;;;;;;;2.90;1.20;;;10.70;96.40;;;;;;5050879;28;20206;-57
2021/01/22 03:53:51;;;;;;;9.47;1.20;;;10.70;96.40;;;;;;5050643;28;20209;-57
2021/01/22 03:56:17;;;;;;;3.03;1.20;;;10.80;96.30;;;;;;5050546;28;20229;-57
2021/01/22 03:58:43;;;;;;;5.53;1.30;;;10.80;96.10;;;;;;5050646;28;20713;-57
2021/01/22 04:01:09;;;;;;;3.07;1.23;;;10.70;96.20;;;;;;5050778;28;20665;-57
2021/01/22 04:03:36;;;;;;;4.83;1.10;;;10.60;96.30;;;;;;5050610;28;20210;-57
2021/01/22 04:06:03;;;;;;;3.67;1.20;;;10.60;96.70;;;;;;5050746;28;20226;-57
2021/01/22 04:08:29;;;;;;;3.43;1.17;;;10.60;96.40;;;;;;5050658;28;20290;-57
2021/01/22 04:10:56;;;;;;;6.53;1.20;;;10.70;96.30;;;;;;5050557;28;20209;-57
2021/01/22 04:13:22;;;;;;;4.53;1.30;;;10.60;96.40;;;;;;5050824;28;20202;-57
2021/01/22 04:15:48;;;;;;;4.17;1.73;;;10.70;96.40;;;;;;5050453;28;20663;-57
2021/01/22 04:18:14;;;;;;;4.87;1.43;;;10.70;96.20;;;;;;5050474;28;20209;-58
2021/01/22 04:20:40;;;;;;;2.80;1.10;;;10.80;96.10;;;;;;5050374;28;20705;-57
2021/01/22 04:23:07;;;;;;;3.20;1.13;;;10.70;96.10;;;;;;5050488;28;20636;-57
2021/01/22 04:25:33;;;;;;;4.20;1.10;;;10.70;96.00;;;;;;5052614;28;20205;-58
2021/01/22 04:28:00;;;;;;;3.63;1.20;;;10.60;96.20;;;;;;5054432;28;20206;-58
2021/01/22 04:30:27;;;;;;;3.73;1.33;;;10.50;96.20;;;;;;5054448;28;20204;-58
2021/01/22 04:32:53;;;;;;;2.13;0.90;;;10.60;96.10;;;;;;5054304;28;20202;-57
2021/01/22 04:35:19;;;;;;;3.63;1.20;;;10.50;96.00;;;;;;5054066;28;20685;-58
2021/01/22 04:37:46;;;;;;;3.03;1.10;;;10.40;95.90;;;;;;5053955;28;20646;-58
2021/01/22 04:40:13;;;;;;;4.63;1.17;;;10.40;96.00;;;;;;5054360;28;20230;-57
2021/01/22 04:42:42;;;;;;;3.13;1.00;;;10.40;96.20;;;;;;5054131;28;20677;-58
2021/01/22 04:45:10;;;;;;;3.07;1.17;;;10.40;95.90;;;;;;5053945;28;20210;-57
2021/01/22 04:47:38;;;;;;;3.73;1.10;;;10.40;95.90;;;;;;5053857;28;20321;-57
2021/01/22 04:50:06;;;;;;;2.07;1.00;;;10.50;95.80;;;;;;5054002;28;20201;-58
2021/01/22 04:52:34;;;;;;;6.27;1.30;;;10.60;95.80;;;;;;5053914;28;20346;-57
2021/01/22 04:55:03;;;;;;;5.13;1.90;;;10.60;95.70;;;;;;5053930;28;20201;-57
2021/01/22 04:57:31;;;;;;;5.00;1.30;;;10.70;95.50;;;;;;5053878;28;20233;-57
2021/01/22 04:59:58;;;;;;;4.70;1.10;;;10.80;95.30;;;;;;5053784;28;20312;-58
2021/01/22 05:02:24;;;;;;;5.37;2.30;;;10.80;95.30;;;;;;5053757;28;20279;-58
2021/01/22 05:04:51;;;;;;;5.10;1.00;;;10.70;95.20;;;;;;5053506;28;20212;-58
2021/01/22 05:07:21;;;;;;;3.97;1.27;;;10.80;95.10;;;;;;5053881;28;20298;-58
2021/01/22 05:09:47;;;;;;;2.17;1.10;;;10.80;95.20;;;;;;5053932;28;20251;-58
2021/01/22 05:12:14;;;;;;;1.80;0.87;;;10.80;95.20;;;;;;5054004;28;20209;-57
2021/01/22 05:14:41;;;;;;;4.07;1.03;;;10.80;95.10;;;;;;5053560;28;20255;-57
2021/01/22 05:17:08;;;;;;;1.70;0.60;;;10.90;95.10;;;;;;5053353;28;20229;-57
2021/01/22 05:19:36;;;;;;;2.37;0.83;;;10.80;95.10;;;;;;5053209;28;20316;-57
2021/01/22 05:22:03;;;;;;;3.90;1.10;;;10.90;95.10;;;;;;5053657;28;20210;-58
2021/01/22 05:24:30;;;;;;;3.13;0.90;;;11.00;95.10;;;;;;5053311;28;20205;-58
2021/01/22 05:27:04;;;;;;;2.17;0.90;;;11.00;95.00;;;;;;5052934;28;20593;-58
2021/01/22 05:29:32;;;;;;;1.23;0.50;;;11.00;95.10;;;;;;5053063;28;20667;-58
2021/01/22 05:31:59;;;;;;;3.27;1.13;;;10.80;95.30;;;;;;5053000;28;20584;-58
2021/01/22 05:34:43;;;;;;;3.03;0.60;;;10.90;95.40;;;;;;5053239;28;20205;-57
2021/01/22 05:37:10;;;;;;;3.57;0.90;;;10.80;95.50;;;;;;5053080;28;20615;-57
2021/01/22 05:39:36;;;;;;;2.00;0.50;;;10.60;95.60;;;;;;5052998;28;20228;-57
2021/01/22 05:42:02;;;;;;;2.73;0.80;;;10.60;95.80;;;;;;5052886;28;20627;-57
2021/01/22 05:44:28;;;;;;;1.83;0.87;;;10.70;95.90;;;;;;5052426;28;20259;-57
2021/01/22 05:47:04;;;;;;;2.40;0.90;;;10.60;95.90;;;;;;5052898;28;20282;-58
2021/01/22 05:49:31;;;;;;;1.27;0.80;;;10.60;96.00;;;;;;5052877;28;20201;-58
2021/01/22 05:51:58;;;;;;;5.70;1.60;;;10.40;96.20;;;;;;5052951;28;20205;-58
2021/01/22 05:54:38;;;;;;;1.97;0.77;;;10.50;96.40;;;;;;5052561;28;20228;-58
2021/01/22 05:57:06;;;;;;;0.80;0.47;;;10.40;96.50;;;;;;5053004;28;20230;-58
2021/01/22 05:59:32;;;;;;;2.77;0.80;;;10.30;96.70;;;;;;5052657;28;20225;-57
2021/01/22 06:01:59;;;;;;;1.30;0.50;;;10.30;96.80;;;;;;5052893;28;20220;-57
2021/01/22 06:04:26;;;;;;;2.43;1.17;;;10.30;96.90;;;;;;5052624;28;20209;-58
2021/01/22 06:06:53;;;;;;;3.80;2.07;;;10.30;97.00;;;;;;5052533;28;20228;-58
2021/01/22 06:09:33;;;;;;;3.23;0.90;;;10.20;97.00;;;;;;5052394;28;20204;-58
2021/01/22 06:12:02;;;;;;;1.50;0.53;;;10.30;97.10;;;;;;5052665;28;20319;-57
2021/01/22 06:14:34;;;;;;;1.37;0.50;;;10.20;97.20;;;;;;5052524;28;20316;-59
2021/01/22 06:17:05;;;;;;;1.20;0.53;;;10.20;97.20;;;;;;5052278;28;20677;-58
2021/01/22 06:19:37;;;;;;;1.30;0.70;;;10.20;97.40;;;;;;5052282;28;20328;-59
2021/01/22 06:22:08;;;;;;;2.07;0.60;;;10.30;97.30;;;;;;5052301;28;20296;-58
2021/01/22 06:24:35;;;;;;;1.97;0.63;;;10.30;97.30;;;;;;5052329;28;20209;-59
2021/01/22 06:27:03;;;;;;;1.43;0.60;;;10.40;97.10;;;;;;5051902;28;20328;-58
2021/01/22 06:29:30;;;;;;;1.33;0.50;;;10.40;97.10;;;;;;5052029;28;20593;-57
2021/01/22 06:31:57;;;;;;;1.10;0.60;;;10.40;97.10;;;;;;5052012;28;20214;-57
2021/01/22 06:34:24;;;;;;;2.57;0.70;;;10.50;97.10;;;;;;5051929;28;20213;-57
2021/01/22 06:36:52;;;;;;;1.90;1.10;;;10.60;96.90;;;;;;5051993;28;20225;-57
2021/01/22 06:39:19;;;;;;;1.27;1.00;;;10.70;96.70;;;;;;5051742;28;20304;-57
2021/01/22 06:41:47;;;;;;;1.47;0.70;;;10.90;96.60;;;;;;5051964;28;20205;-58
2021/01/22 06:44:13;;;;;;;5.17;0.90;;;10.90;96.50;;;;;;5051534;28;20209;-58
2021/01/22 06:46:39;;;;;;;1.80;1.20;;;10.90;96.40;;;;;;5052014;28;20226;-58
2021/01/22 06:49:06;;;;;;;2.37;1.10;;;10.90;96.30;;;;;;5051140;28;20213;-58
2021/01/22 06:51:34;;;;;;;3.03;1.13;;;10.90;96.30;;;;;;5051827;28;20209;-58
2021/01/22 06:54:06;;;;;;;2.83;1.07;;;10.90;96.30;;;;;;5051548;28;20617;-58
2021/01/22 06:56:33;;;;;;;4.10;1.10;;;10.80;96.40;;;;;;5051582;28;20577;-58
2021/01/22 06:59:34;;;;;;;2.13;1.30;;;10.80;96.50;;;;;;5051246;28;20221;-57
2021/01/22 07:02:01;;;;;;;2.20;0.80;;;10.80;96.50;;;;;;5051512;28;20869;-58
2021/01/22 07:04:38;;;;;;;2.20;0.90;;;10.90;96.70;;;;;;5051581;28;20201;-58
2021/01/22 07:07:05;;;;;;;2.37;0.90;;;10.90;96.40;;;;;;5051472;28;20761;-57
2021/01/22 07:09:56;;;;;;;3.83;1.30;;;10.90;96.30;;;;;;5051255;28;20205;-57
2021/01/22 07:12:40;;;;;;;2.17;1.07;;;11.00;96.20;;;;;;5036172;28;20205;-57
2021/01/22 07:15:28;;;;;;;2.03;0.80;;;11.00;96.20;;;;;;5051402;28;20558;-57
2021/01/22 07:17:59;;;;;;;1.47;0.70;;;11.00;96.20;;;;;;5051276;28;20209;-57
2021/01/22 07:20:28;;;;;;;1.50;1.00;;;10.90;96.20;;;;;;5051708;28;20229;-57
2021/01/22 07:22:55;;;;;;;1.67;0.60;;;11.00;96.20;;;;;;5051307;28;20660;-57
2021/01/22 07:25:34;;;;;;;1.30;0.67;;;11.10;96.00;;;;;;5051478;28;20306;-57
2021/01/22 07:28:07;;;;;;;1.57;0.97;;;11.00;96.10;;;;;;5051486;28;20209;-58
2021/01/22 07:30:38;;;;;;;11.83;9.13;;;11.10;95.90;;;;;;5051377;28;20205;-58
2021/01/22 07:33:35;;;;;;;3.63;1.53;;;11.10;96.00;;;;;;5051637;28;20288;-57
2021/01/22 07:36:09;;;;;;;3.07;0.70;;;11.20;95.90;;;;;;5051411;28;20312;-58
2021/01/22 07:38:37;;;;;;;1.63;0.90;;;11.00;95.90;;;;;;5051320;28;20212;-57
2021/01/22 07:41:05;;;;;;;2.47;0.70;;;11.00;96.00;;;;;;5051281;28;20208;-58
2021/01/22 07:43:32;;;;;;;1.80;0.80;;;11.00;95.90;;;;;;5050889;28;20576;-58
2021/01/22 07:46:08;;;;;;;1.60;0.60;;;11.10;95.90;;;;;;5051103;28;20237;-57
2021/01/22 07:48:35;;;;;;;2.63;0.87;;;11.10;95.70;;;;;;5051168;28;20232;-57
2021/01/22 07:51:31;;;;;;;1.57;0.97;;;11.10;95.60;;;;;;5051095;28;20283;-57
2021/01/22 07:53:57;;;;;;;2.60;0.87;;;11.00;95.80;;;;;;5051166;28;20210;-57
2021/01/22 07:56:32;;;;;;;2.33;0.73;;;11.10;95.80;;;;;;5050628;28;20233;-58
2021/01/22 07:58:58;;;;;;;4.10;0.93;;;11.30;95.60;;;;;;5050770;28;20225;-58
2021/01/22 08:01:25;;;;;;;3.00;0.90;;;11.60;95.30;;;;;;5055123;28;20212;-57
2021/01/22 08:03:51;;;;;;;2.23;0.67;;;11.90;94.90;;;;;;5054915;28;20224;-58
2021/01/22 08:06:17;;;;;;;2.00;0.80;;;12.00;94.30;;;;;;5055209;28;20221;-58
2021/01/22 08:08:43;;;;;;;1.93;0.73;;;12.20;94.20;;;;;;5054959;28;20209;-57
2021/01/22 08:11:19;;;;;;;3.93;0.90;;;12.40;93.90;;;;;;5055284;28;20221;-57
2021/01/22 08:13:47;;;;;;;1.87;0.70;;;12.50;93.60;;;;;;5054798;28;20696;-56
2021/01/22 08:16:21;;;;;;;2.50;0.80;;;12.50;93.40;;;;;;5054929;28;20232;-57
2021/01/22 08:18:47;;;;;;;3.47;0.83;;;12.50;93.40;;;;;;5054506;28;20255;-57
2021/01/22 08:21:13;;;;;;;4.83;1.17;;;12.50;93.40;;;;;;5055367;28;20232;-56
2021/01/22 08:23:42;;;;;;;1.43;0.60;;;12.50;93.40;;;;;;5054912;28;20214;-57
2021/01/22 08:26:10;;;;;;;3.40;1.10;;;12.40;93.40;;;;;;5054350;28;20739;-56
2021/01/22 08:28:37;;;;;;;4.57;1.00;;;12.50;93.40;;;;;;5054657;28;20235;-56
2021/01/22 08:31:04;;;;;;;3.27;0.80;;;12.60;93.20;;;;;;5054494;28;20212;-56
2021/01/22 08:33:30;;;;;;;2.17;0.67;;;12.60;93.30;;;;;;5054271;28;20212;-57
2021/01/22 08:35:57;;;;;;;2.17;1.00;;;12.60;93.30;;;;;;5054476;28;20287;-56
2021/01/22 08:38:24;;;;;;;1.67;0.70;;;12.70;93.20;;;;;;5054577;28;20244;-57
2021/01/22 08:40:51;;;;;;;3.40;0.63;;;12.80;93.30;;;;;;5054343;28;20233;-58
2021/01/22 08:43:17;;;;;;;3.73;0.83;;;13.00;93.00;;;;;;5054327;28;20210;-57
2021/01/22 08:46:06;;;;;;;3.20;0.90;;;13.10;92.80;;;;;;5053907;28;20212;-57
2021/01/22 08:48:32;;;;;;;3.60;1.47;;;13.30;92.50;;;;;;5054057;28;20589;-58
2021/01/22 08:50:59;;;;;;;4.10;1.47;;;13.50;92.60;;;;;;5054263;28;20198;-58
2021/01/22 08:53:25;;;;;;;2.43;1.00;;;13.60;92.30;;;;;;5054117;28;20201;-58
2021/01/22 08:56:08;;;;;;;2.63;0.80;;;13.80;92.00;;;;;;5054174;28;20312;-57
2021/01/22 08:58:34;;;;;;;3.27;0.63;;;13.90;91.90;;;;;;5054239;28;20205;-57
2021/01/22 09:01:00;;;;;;;2.00;0.80;;;14.10;91.80;;;;;;5054477;28;20229;-58
2021/01/22 09:03:27;;;;;;;2.30;1.10;;;14.20;91.60;;;;;;5054563;28;20210;-58
2021/01/22 09:05:55;;;;;;;4.27;1.40;;;14.40;91.30;;;;;;5054254;28;20229;-58
2021/01/22 09:08:23;;;;;;;2.77;0.97;;;14.60;91.10;;;;;;5054079;28;20209;-57
2021/01/22 09:10:50;;;;;;;3.10;0.60;;;14.80;90.90;;;;;;5053235;28;20259;-56
2021/01/22 09:13:19;;;;;;;6.03;1.10;;;14.90;90.50;;;;;;5053875;28;20209;-58
2021/01/22 09:15:46;;;;;;;2.53;0.77;;;15.10;90.20;;;;;;5053550;28;20236;-57
2021/01/22 09:18:17;;;;;;;4.30;1.27;;;15.00;90.10;;;;;;5053628;28;20363;-57
2021/01/22 09:20:44;;;;;;;1.20;0.77;;;15.20;90.00;;;;;;5053617;28;20221;-57
2021/01/22 09:23:11;;;;;;;3.60;0.97;;;15.50;89.50;;;;;;5053840;28;20213;-56
2021/01/22 09:25:38;;;;;;;3.00;0.80;;;15.50;88.50;;;;;;5053231;28;20201;-57
2021/01/22 09:28:04;;;;;;;2.47;0.80;;;15.60;88.40;;;;;;5054218;28;20202;-57
2021/01/22 09:30:30;;;;;;;5.93;0.97;;;15.60;87.90;;;;;;5053464;28;20201;-56
2021/01/22 09:32:58;;;;;;;4.23;1.03;;;15.70;87.50;;;;;;5053280;28;20662;-57
2021/01/22 09:35:26;;;;;;;3.57;0.80;;;15.70;86.90;;;;;;5053208;28;20201;-56
2021/01/22 09:37:53;;;;;;;3.60;1.30;;;15.60;86.60;;;;;;5052766;28;20658;-57
2021/01/22 09:40:21;;;;;;;5.90;1.07;;;15.50;87.00;;;;;;5052895;28;20701;-56
2021/01/22 09:42:47;;;;;;;3.77;1.00;;;15.40;86.90;;;;;;5053014;28;20205;-57
2021/01/22 09:45:14;;;;;;;3.67;1.37;;;15.30;87.60;;;;;;5052642;28;20583;-57
2021/01/22 09:47:40;;;;;;;2.47;1.00;;;15.20;87.50;;;;;;5052874;28;20225;-57
2021/01/22 09:50:09;;;;;;;4.37;0.83;;;15.10;87.10;;;;;;5052872;28;20212;-57
2021/01/22 09:52:37;;;;;;;1.80;0.80;;;15.10;87.30;;;;;;5052658;28;20252;-56
2021/01/22 09:55:06;;;;;;;4.43;0.90;;;15.20;87.40;;;;;;5053032;28;20620;-57
2021/01/22 09:57:32;;;;;;;7.40;1.17;;;15.20;87.10;;;;;;5052916;28;20229;-57
2021/01/22 09:59:59;;;;;;;9.67;1.33;;;15.20;87.50;;;;;;5052874;28;20651;-59
2021/01/22 10:02:25;;;;;;;3.90;0.90;;;15.30;87.20;;;;;;5053067;28;20209;-61
2021/01/22 10:04:51;;;;;;;3.97;1.13;;;15.40;87.30;;;;;;5054327;28;20205;-62
2021/01/22 10:07:17;;;;;;;2.63;1.03;;;15.40;86.70;;;;;;5052632;28;20229;-61
2021/01/22 10:09:43;;;;;;;4.80;1.40;;;15.30;86.80;;;;;;5052782;28;20205;-61
2021/01/22 10:12:10;;;;;;;4.20;1.00;;;15.40;86.90;;;;;;5052459;28;20642;-61
2021/01/22 10:14:37;;;;;;;2.90;0.83;;;15.30;86.80;;;;;;5052886;28;20213;-63
2021/01/22 10:17:03;;;;;;;2.80;1.03;;;15.30;86.80;;;;;;5052455;28;20279;-62
2021/01/22 10:19:30;;;;;;;4.73;1.60;;;15.40;87.10;;;;;;5052008;28;20221;-62
2021/01/22 10:21:56;;;;;;;3.10;0.90;;;15.50;86.80;;;;;;5051670;28;20213;-61
2021/01/22 10:24:22;;;;;;;2.30;0.90;;;15.70;86.20;;;;;;5052163;28;20213;-61
2021/01/22 10:26:49;;;;;;;5.03;1.10;;;15.80;86.00;;;;;;5052309;28;20240;-61
2021/01/22 10:29:16;;;;;;;1.87;0.97;;;15.70;85.90;;;;;;5051923;28;20691;-61
2021/01/22 10:31:43;;;;;;;3.23;0.87;;;15.70;85.80;;;;;;5052157;28;20210;-63
2021/01/22 10:34:09;;;;;;;3.93;1.10;;;15.70;86.00;;;;;;5052111;28;20206;-62
2021/01/22 10:36:36;;;;;;;2.57;1.17;;;15.70;85.90;;;;;;5051952;28;20657;-61
2021/01/22 10:39:02;;;;;;;4.20;1.23;;;15.70;86.10;;;;;;5051892;28;20212;-63
2021/01/22 10:41:29;;;;;;;5.60;1.03;;;15.70;85.80;;;;;;5051863;28;20217;-61
2021/01/22 10:43:55;;;;;;;3.47;0.90;;;15.80;85.10;;;;;;5051625;28;20209;-63
2021/01/22 10:46:22;;;;;;;3.63;1.20;;;15.80;85.40;;;;;;5051646;28;20233;-61
2021/01/22 10:48:48;;;;;;;2.87;1.17;;;15.90;84.90;;;;;;5051597;28;20271;-63
2021/01/22 10:51:14;;;;;;;3.87;1.43;;;16.00;84.50;;;;;;5051845;28;20206;-62
2021/01/22 10:53:40;;;;;;;4.70;1.10;;;16.10;84.20;;;;;;5051593;28;20201;-61
2021/01/22 10:56:07;;;;;;;3.07;1.10;;;16.20;84.40;;;;;;5051682;28;20232;-62
2021/01/22 10:58:33;;;;;;;4.43;0.87;;;16.40;84.10;;;;;;5051674;28;20209;-61
2021/01/22 11:00:59;;;;;;;2.37;1.00;;;16.60;83.70;;;;;;5051518;28;20268;-63
2021/01/22 11:03:28;;;;;;;2.13;0.90;;;16.90;82.80;;;;;;5051055;28;20205;-61
2021/01/22 11:05:54;;;;;;;5.53;2.70;;;17.10;82.00;;;;;;5051445;28;20225;-62
2021/01/22 11:08:20;;;;;;;2.93;1.07;;;17.10;81.70;;;;;;5051401;28;20298;-60
2021/01/22 11:10:46;;;;;;;1.47;0.90;;;17.10;82.30;;;;;;5051498;28;20202;-60
2021/01/22 11:13:13;;;;;;;2.53;0.90;;;17.20;81.70;;;;;;5051379;28;20220;-62
2021/01/22 11:15:39;;;;;;;7.40;1.20;;;17.10;81.70;;;;;;5050974;28;20209;-60
2021/01/22 11:18:05;;;;;;;4.10;1.20;;;17.00;81.60;;;;;;5051163;28;20476;-61
2021/01/22 11:20:32;;;;;;;2.57;0.90;;;17.10;81.30;;;;;;5051203;28;20291;-61
2021/01/22 11:22:58;;;;;;;4.33;1.00;;;17.00;81.40;;;;;;5051386;28;20229;-61
2021/01/22 11:25:24;;;;;;;1.90;0.70;;;16.80;81.60;;;;;;5051445;28;20205;-61
2021/01/22 11:27:51;;;;;;;1.30;0.70;;;16.60;82.20;;;;;;5051535;28;20610;-61
2021/01/22 11:30:18;;;;;;;2.40;0.67;;;16.40;82.40;;;;;;5051505;28;20202;-61
2021/01/22 11:32:44;;;;;;;2.37;0.90;;;16.30;82.70;;;;;;5050836;28;20205;-61
2021/01/22 11:35:12;;;;;;;1.57;0.70;;;16.30;83.40;;;;;;5050691;28;20205;-61
2021/01/22 11:37:39;;;;;;;1.90;0.87;;;16.20;83.40;;;;;;5051019;28;20249;-61
2021/01/22 11:40:08;;;;;;;2.03;0.60;;;16.40;83.30;;;;;;5051449;28;20225;-61
2021/01/22 11:42:35;;;;;;;0.73;0.60;;;16.50;83.60;;;;;;5051308;28;20701;-61
2021/01/22 11:45:01;;;;;;;2.30;0.97;;;16.60;82.50;;;;;;5051646;28;20260;-60
2021/01/22 11:47:27;;;;;;;3.57;1.10;;;16.60;82.00;;;;;;5051116;28;20237;-61
2021/01/22 11:49:53;;;;;;;3.83;0.77;;;16.70;82.00;;;;;;5051041;28;20202;-60
2021/01/22 11:52:20;;;;;;;0.90;0.60;;;16.60;82.50;;;;;;5050986;28;20202;-61
2021/01/22 11:54:47;;;;;;;0.73;0.40;;;16.50;82.50;;;;;;5050833;28;20395;-61
2021/01/22 11:57:13;;;;;;;2.07;0.50;;;16.40;82.20;;;;;;5050294;28;20288;-61
2021/01/22 11:59:39;;;;;;;2.23;0.93;;;16.30;82.60;;;;;;5050173;28;20217;-61
2021/01/22 12:02:06;;;;;;;0.50;0.50;;;16.30;82.70;;;;;;5050912;28;20212;-61
2021/01/22 12:04:32;;;;;;;2.57;0.70;;;16.40;82.50;;;;;;5050522;28;20209;-61
2021/01/22 12:06:58;;;;;;;1.07;0.50;;;16.60;82.20;;;;;;5050592;28;20225;-61
2021/01/22 12:09:25;;;;;;;1.70;0.97;;;16.70;81.80;;;;;;5050518;28;20197;-62
2021/01/22 12:11:52;;;;;;;2.17;1.03;;;16.90;81.70;;;;;;5050320;28;20247;-62
2021/01/22 12:14:18;;;;;;;2.30;1.07;;;16.90;81.30;;;;;;5050064;28;20735;-61
2021/01/22 12:16:45;;;;;;;3.00;0.73;;;16.90;80.80;;;;;;5050314;28;20628;-61
2021/01/22 12:19:11;;;;;;;1.10;0.60;;;17.00;81.30;;;;;;5050173;28;20201;-61
2021/01/22 12:21:37;;;;;;;1.83;0.80;;;16.90;81.10;;;;;;5050268;28;20623;-62
2021/01/22 12:24:04;;;;;;;0.53;0.43;;;16.70;81.60;;;;;;5050304;28;20260;-61
2021/01/22 12:26:30;;;;;;;3.73;0.70;;;16.70;81.70;;;;;;5050613;28;20736;-61
2021/01/22 12:28:57;;;;;;;2.13;0.77;;;16.60;82.00;;;;;;5050676;28;20201;-61
2021/01/22 12:31:24;;;;;;;1.57;1.00;;;16.60;81.60;;;;;;5050754;28;20636;-61
2021/01/22 12:33:50;;;;;;;2.03;0.80;;;16.70;81.50;;;;;;5050487;28;20206;-62
2021/01/22 12:36:16;;;;;;;3.73;1.23;;;16.70;81.00;;;;;;5050325;28;20226;-61
2021/01/22 12:38:42;;;;;;;1.93;0.77;;;16.80;80.40;;;;;;5050216;28;20304;-62
2021/01/22 12:41:08;;;;;;;2.63;0.90;;;16.80;80.10;;;;;;5050420;28;20222;-62
2021/01/22 12:43:35;;;;;;;4.03;0.77;;;17.00;80.00;;;;;;5050288;28;20205;-61
2021/01/22 12:46:02;;;;;;;1.40;1.00;;;17.20;79.30;;;;;;5051772;28;20255;-61
2021/01/22 12:48:28;;;;;;;2.83;0.60;;;17.40;78.30;;;;;;5054232;28;20206;-62
2021/01/22 12:50:55;;;;;;;1.47;0.67;;;17.50;77.20;;;;;;5054288;28;20234;-62